sensor_id;sensor_type;location;lat;lon;timestamp;temperature;humidity
66128;DHT22;52925;52.436;-1.952;2023-07-13T00:01:18;17.80;85.20
66128;DHT22;52925;52.436;-1.952;2023-07-13T00:02:38;17.80;85.00
66128;DHT22;52925;52.436;-1.952;2023-07-13T00:04:00;17.80;85.00
66128;DHT22;52925;52.436;-1.952;2023-07-13T00:05:20;17.90;85.00
66128;DHT22;52925;52.436;-1.952;2023-07-13T00:06:41;17.80;84.90
66128;DHT22;52925;52.436;-1.952;2023-07-13T00:08:04;17.90;85.10
66128;DHT22;52925;52.436;-1.952;2023-07-13T00:09:25;17.90;85.00
66128;DHT22;52925;52.436;-1.952;2023-07-13T00:10:44;17.90;85.10
66128;DHT22;52925;52.436;-1.952;2023-07-13T00:12:22;17.90;85.30
66128;DHT22;52925;52.436;-1.952;2023-07-13T00:13:44;17.80;85.50
66128;DHT22;52925;52.436;-1.952;2023-07-13T00:15:06;17.70;85.60
66128;DHT22;52925;52.436;-1.952;2023-07-13T00:16:27;17.80;85.70
66128;DHT22;52925;52.436;-1.952;2023-07-13T00:17:47;17.60;86.20
66128;DHT22;52925;52.436;-1.952;2023-07-13T00:19:10;17.60;86.40
66128;DHT22;52925;52.436;-1.952;2023-07-13T00:20:31;17.60;86.50
66128;DHT22;52925;52.436;-1.952;2023-07-13T00:21:52;17.60;86.70
66128;DHT22;52925;52.436;-1.952;2023-07-13T00:23:15;17.60;86.60
66128;DHT22;52925;52.436;-1.952;2023-07-13T00:24:36;17.60;86.50
66128;DHT22;52925;52.436;-1.952;2023-07-13T00:26:01;17.60;86.60
66128;DHT22;52925;52.436;-1.952;2023-07-13T00:27:23;17.50;86.60
66128;DHT22;52925;52.436;-1.952;2023-07-13T00:28:43;17.60;86.70
66128;DHT22;52925;52.436;-1.952;2023-07-13T00:30:06;17.60;86.70
66128;DHT22;52925;52.436;-1.952;2023-07-13T00:31:26;17.60;86.80
66128;DHT22;52925;52.436;-1.952;2023-07-13T00:32:47;17.60;86.40
66128;DHT22;52925;52.436;-1.952;2023-07-13T00:34:06;17.70;86.30
66128;DHT22;52925;52.436;-1.952;2023-07-13T00:35:30;17.70;86.20
66128;DHT22;52925;52.436;-1.952;2023-07-13T00:36:51;17.70;86.20
66128;DHT22;52925;52.436;-1.952;2023-07-13T00:38:13;17.80;86.10
66128;DHT22;52925;52.436;-1.952;2023-07-13T00:39:33;17.70;86.30
66128;DHT22;52925;52.436;-1.952;2023-07-13T00:40:56;17.70;86.30
66128;DHT22;52925;52.436;-1.952;2023-07-13T00:42:16;17.70;86.20
66128;DHT22;52925;52.436;-1.952;2023-07-13T00:43:40;17.60;86.40
66128;DHT22;52925;52.436;-1.952;2023-07-13T00:45:04;17.70;86.50
66128;DHT22;52925;52.436;-1.952;2023-07-13T00:46:28;17.70;86.50
66128;DHT22;52925;52.436;-1.952;2023-07-13T00:47:49;17.60;86.90
66128;DHT22;52925;52.436;-1.952;2023-07-13T00:49:13;17.60;87.00
66128;DHT22;52925;52.436;-1.952;2023-07-13T00:50:37;17.50;87.30
66128;DHT22;52925;52.436;-1.952;2023-07-13T00:52:02;17.50;87.60
66128;DHT22;52925;52.436;-1.952;2023-07-13T00:53:24;17.50;87.60
66128;DHT22;52925;52.436;-1.952;2023-07-13T00:54:47;17.50;87.50
66128;DHT22;52925;52.436;-1.952;2023-07-13T00:56:08;17.60;87.30
66128;DHT22;52925;52.436;-1.952;2023-07-13T00:57:29;17.60;87.00
66128;DHT22;52925;52.436;-1.952;2023-07-13T00:58:50;17.60;87.00
66128;DHT22;52925;52.436;-1.952;2023-07-13T01:00:12;17.70;86.90
66128;DHT22;52925;52.436;-1.952;2023-07-13T01:01:34;17.70;86.60
66128;DHT22;52925;52.436;-1.952;2023-07-13T01:02:57;17.70;86.70
66128;DHT22;52925;52.436;-1.952;2023-07-13T01:04:19;17.70;86.80
66128;DHT22;52925;52.436;-1.952;2023-07-13T01:05:41;17.50;87.40
66128;DHT22;52925;52.436;-1.952;2023-07-13T01:07:02;17.60;87.50
66128;DHT22;52925;52.436;-1.952;2023-07-13T01:08:22;17.50;87.50
66128;DHT22;52925;52.436;-1.952;2023-07-13T01:09:43;17.60;87.40
66128;DHT22;52925;52.436;-1.952;2023-07-13T01:11:04;17.60;87.30
66128;DHT22;52925;52.436;-1.952;2023-07-13T01:12:27;17.60;87.20
66128;DHT22;52925;52.436;-1.952;2023-07-13T01:13:47;17.60;87.20
66128;DHT22;52925;52.436;-1.952;2023-07-13T01:15:33;17.60;87.30
66128;DHT22;52925;52.436;-1.952;2023-07-13T01:16:54;17.60;87.50
66128;DHT22;52925;52.436;-1.952;2023-07-13T01:18:21;17.60;87.30
66128;DHT22;52925;52.436;-1.952;2023-07-13T01:19:43;17.60;87.30
66128;DHT22;52925;52.436;-1.952;2023-07-13T01:21:06;17.60;87.30
66128;DHT22;52925;52.436;-1.952;2023-07-13T01:22:26;17.60;87.50
66128;DHT22;52925;52.436;-1.952;2023-07-13T01:23:47;17.60;87.50
66128;DHT22;52925;52.436;-1.952;2023-07-13T01:25:07;17.60;87.50
66128;DHT22;52925;52.436;-1.952;2023-07-13T01:26:28;17.60;87.50
66128;DHT22;52925;52.436;-1.952;2023-07-13T01:27:48;17.70;87.50
66128;DHT22;52925;52.436;-1.952;2023-07-13T01:29:09;17.60;87.60
66128;DHT22;52925;52.436;-1.952;2023-07-13T01:30:32;17.60;87.70
66128;DHT22;52925;52.436;-1.952;2023-07-13T01:31:52;17.70;87.70
66128;DHT22;52925;52.436;-1.952;2023-07-13T01:33:13;17.70;87.60
66128;DHT22;52925;52.436;-1.952;2023-07-13T01:34:33;17.70;87.20
66128;DHT22;52925;52.436;-1.952;2023-07-13T01:35:54;17.80;87.10
66128;DHT22;52925;52.436;-1.952;2023-07-13T01:37:18;17.70;87.60
66128;DHT22;52925;52.436;-1.952;2023-07-13T01:38:39;17.70;87.80
66128;DHT22;52925;52.436;-1.952;2023-07-13T01:40:01;17.70;88.20
66128;DHT22;52925;52.436;-1.952;2023-07-13T01:41:24;17.70;88.10
66128;DHT22;52925;52.436;-1.952;2023-07-13T01:42:43;17.70;88.10
66128;DHT22;52925;52.436;-1.952;2023-07-13T01:44:05;17.70;88.10
66128;DHT22;52925;52.436;-1.952;2023-07-13T01:45:25;17.80;88.10
66128;DHT22;52925;52.436;-1.952;2023-07-13T01:46:45;17.80;87.70
66128;DHT22;52925;52.436;-1.952;2023-07-13T01:48:05;17.80;87.80
66128;DHT22;52925;52.436;-1.952;2023-07-13T01:49:26;17.80;87.70
66128;DHT22;52925;52.436;-1.952;2023-07-13T01:50:47;17.80;87.70
66128;DHT22;52925;52.436;-1.952;2023-07-13T01:52:08;17.90;87.90
66128;DHT22;52925;52.436;-1.952;2023-07-13T01:53:29;17.80;87.90
66128;DHT22;52925;52.436;-1.952;2023-07-13T01:54:51;17.80;88.10
66128;DHT22;52925;52.436;-1.952;2023-07-13T01:56:10;17.80;87.70
66128;DHT22;52925;52.436;-1.952;2023-07-13T01:57:31;17.90;87.90
66128;DHT22;52925;52.436;-1.952;2023-07-13T01:58:52;17.80;87.90
66128;DHT22;52925;52.436;-1.952;2023-07-13T02:00:13;17.90;88.10
66128;DHT22;52925;52.436;-1.952;2023-07-13T02:01:36;17.90;87.80
66128;DHT22;52925;52.436;-1.952;2023-07-13T02:02:57;17.90;88.20
66128;DHT22;52925;52.436;-1.952;2023-07-13T02:04:17;17.80;88.10
66128;DHT22;52925;52.436;-1.952;2023-07-13T02:05:38;17.80;88.20
66128;DHT22;52925;52.436;-1.952;2023-07-13T02:06:57;17.80;88.60
66128;DHT22;52925;52.436;-1.952;2023-07-13T02:08:18;17.80;88.50
66128;DHT22;52925;52.436;-1.952;2023-07-13T02:09:40;17.80;88.30
66128;DHT22;52925;52.436;-1.952;2023-07-13T02:11:02;17.80;88.30
66128;DHT22;52925;52.436;-1.952;2023-07-13T02:12:23;17.80;88.30
66128;DHT22;52925;52.436;-1.952;2023-07-13T02:13:44;17.80;88.30
66128;DHT22;52925;52.436;-1.952;2023-07-13T02:15:05;17.80;88.30
66128;DHT22;52925;52.436;-1.952;2023-07-13T02:16:25;17.90;88.30
66128;DHT22;52925;52.436;-1.952;2023-07-13T02:17:46;17.80;88.30
66128;DHT22;52925;52.436;-1.952;2023-07-13T02:19:06;17.90;88.50
66128;DHT22;52925;52.436;-1.952;2023-07-13T02:20:27;17.80;88.60
66128;DHT22;52925;52.436;-1.952;2023-07-13T02:21:47;17.70;89.00
66128;DHT22;52925;52.436;-1.952;2023-07-13T02:23:10;17.60;89.20
66128;DHT22;52925;52.436;-1.952;2023-07-13T02:24:30;17.60;89.40
66128;DHT22;52925;52.436;-1.952;2023-07-13T02:25:56;17.60;89.30
66128;DHT22;52925;52.436;-1.952;2023-07-13T02:27:17;17.70;89.30
66128;DHT22;52925;52.436;-1.952;2023-07-13T02:28:37;17.70;89.00
66128;DHT22;52925;52.436;-1.952;2023-07-13T02:29:57;17.80;89.00
66128;DHT22;52925;52.436;-1.952;2023-07-13T02:31:17;17.70;88.90
66128;DHT22;52925;52.436;-1.952;2023-07-13T02:32:38;17.80;88.90
66128;DHT22;52925;52.436;-1.952;2023-07-13T02:33:58;17.80;88.60
66128;DHT22;52925;52.436;-1.952;2023-07-13T02:35:19;17.80;88.60
66128;DHT22;52925;52.436;-1.952;2023-07-13T02:36:39;17.80;88.70
66128;DHT22;52925;52.436;-1.952;2023-07-13T02:38:00;17.80;88.60
66128;DHT22;52925;52.436;-1.952;2023-07-13T02:39:23;17.70;89.10
66128;DHT22;52925;52.436;-1.952;2023-07-13T02:40:43;17.70;89.20
66128;DHT22;52925;52.436;-1.952;2023-07-13T02:42:06;17.70;89.20
66128;DHT22;52925;52.436;-1.952;2023-07-13T02:43:25;17.70;89.20
66128;DHT22;52925;52.436;-1.952;2023-07-13T02:44:46;17.60;89.10
66128;DHT22;52925;52.436;-1.952;2023-07-13T02:46:06;17.60;89.70
66128;DHT22;52925;52.436;-1.952;2023-07-13T02:47:28;17.60;89.70
66128;DHT22;52925;52.436;-1.952;2023-07-13T02:48:48;17.60;89.90
66128;DHT22;52925;52.436;-1.952;2023-07-13T02:50:09;17.60;89.60
66128;DHT22;52925;52.436;-1.952;2023-07-13T02:51:29;17.60;89.70
66128;DHT22;52925;52.436;-1.952;2023-07-13T02:52:53;17.60;89.60
66128;DHT22;52925;52.436;-1.952;2023-07-13T02:54:12;17.60;89.50
66128;DHT22;52925;52.436;-1.952;2023-07-13T02:55:33;17.60;89.40
66128;DHT22;52925;52.436;-1.952;2023-07-13T02:56:53;17.70;89.50
66128;DHT22;52925;52.436;-1.952;2023-07-13T02:58:16;17.70;89.50
66128;DHT22;52925;52.436;-1.952;2023-07-13T02:59:36;17.70;89.80
66128;DHT22;52925;52.436;-1.952;2023-07-13T03:01:06;17.70;89.60
66128;DHT22;52925;52.436;-1.952;2023-07-13T03:02:26;17.70;89.50
66128;DHT22;52925;52.436;-1.952;2023-07-13T03:03:48;17.70;89.30
66128;DHT22;52925;52.436;-1.952;2023-07-13T03:05:09;17.70;89.30
66128;DHT22;52925;52.436;-1.952;2023-07-13T03:06:32;17.70;89.30
66128;DHT22;52925;52.436;-1.952;2023-07-13T03:07:53;17.70;89.50
66128;DHT22;52925;52.436;-1.952;2023-07-13T03:09:15;17.70;89.50
66128;DHT22;52925;52.436;-1.952;2023-07-13T03:10:38;17.70;89.60
66128;DHT22;52925;52.436;-1.952;2023-07-13T03:12:03;17.70;89.60
66128;DHT22;52925;52.436;-1.952;2023-07-13T03:13:26;17.70;89.60
66128;DHT22;52925;52.436;-1.952;2023-07-13T03:14:47;17.70;89.40
66128;DHT22;52925;52.436;-1.952;2023-07-13T03:16:08;17.70;89.40
66128;DHT22;52925;52.436;-1.952;2023-07-13T03:17:29;17.70;89.40
66128;DHT22;52925;52.436;-1.952;2023-07-13T03:18:49;17.70;89.30
66128;DHT22;52925;52.436;-1.952;2023-07-13T03:20:11;17.70;89.20
66128;DHT22;52925;52.436;-1.952;2023-07-13T03:21:31;17.80;89.10
66128;DHT22;52925;52.436;-1.952;2023-07-13T03:22:52;17.80;89.10
66128;DHT22;52925;52.436;-1.952;2023-07-13T03:24:12;17.80;89.10
66128;DHT22;52925;52.436;-1.952;2023-07-13T03:25:33;17.80;89.00
66128;DHT22;52925;52.436;-1.952;2023-07-13T03:26:54;17.80;89.00
66128;DHT22;52925;52.436;-1.952;2023-07-13T03:28:15;17.80;88.90
66128;DHT22;52925;52.436;-1.952;2023-07-13T03:29:37;17.80;88.90
66128;DHT22;52925;52.436;-1.952;2023-07-13T03:31:02;17.80;88.80
66128;DHT22;52925;52.436;-1.952;2023-07-13T03:32:24;17.80;89.00
66128;DHT22;52925;52.436;-1.952;2023-07-13T03:33:47;17.80;88.90
66128;DHT22;52925;52.436;-1.952;2023-07-13T03:35:08;17.80;88.80
66128;DHT22;52925;52.436;-1.952;2023-07-13T03:36:30;17.80;88.70
66128;DHT22;52925;52.436;-1.952;2023-07-13T03:37:56;17.80;88.80
66128;DHT22;52925;52.436;-1.952;2023-07-13T03:39:16;17.80;88.70
66128;DHT22;52925;52.436;-1.952;2023-07-13T03:40:41;17.80;88.70
66128;DHT22;52925;52.436;-1.952;2023-07-13T03:42:01;17.80;88.70
66128;DHT22;52925;52.436;-1.952;2023-07-13T03:43:22;17.80;88.80
66128;DHT22;52925;52.436;-1.952;2023-07-13T03:44:44;17.80;88.90
66128;DHT22;52925;52.436;-1.952;2023-07-13T03:46:12;17.80;88.90
66128;DHT22;52925;52.436;-1.952;2023-07-13T03:47:31;17.80;88.90
66128;DHT22;52925;52.436;-1.952;2023-07-13T03:48:56;17.80;88.80
66128;DHT22;52925;52.436;-1.952;2023-07-13T03:50:16;17.80;88.90
66128;DHT22;52925;52.436;-1.952;2023-07-13T03:51:37;17.80;89.00
66128;DHT22;52925;52.436;-1.952;2023-07-13T03:52:58;17.80;88.90
66128;DHT22;52925;52.436;-1.952;2023-07-13T03:54:19;17.80;89.00
66128;DHT22;52925;52.436;-1.952;2023-07-13T03:55:40;17.80;89.00
66128;DHT22;52925;52.436;-1.952;2023-07-13T03:57:00;17.80;89.00
66128;DHT22;52925;52.436;-1.952;2023-07-13T03:58:26;17.70;89.00
66128;DHT22;52925;52.436;-1.952;2023-07-13T03:59:51;17.70;88.90
66128;DHT22;52925;52.436;-1.952;2023-07-13T04:01:13;17.80;88.70
66128;DHT22;52925;52.436;-1.952;2023-07-13T04:02:33;17.70;88.90
66128;DHT22;52925;52.436;-1.952;2023-07-13T04:03:55;17.80;89.00
66128;DHT22;52925;52.436;-1.952;2023-07-13T04:05:17;17.80;89.70
66128;DHT22;52925;52.436;-1.952;2023-07-13T04:06:39;17.80;89.10
66128;DHT22;52925;52.436;-1.952;2023-07-13T04:08:00;17.70;89.00
66128;DHT22;52925;52.436;-1.952;2023-07-13T04:09:20;17.70;89.10
66128;DHT22;52925;52.436;-1.952;2023-07-13T04:10:42;17.70;89.30
66128;DHT22;52925;52.436;-1.952;2023-07-13T04:12:03;17.70;89.50
66128;DHT22;52925;52.436;-1.952;2023-07-13T04:13:24;17.70;89.60
66128;DHT22;52925;52.436;-1.952;2023-07-13T04:14:44;17.60;89.70
66128;DHT22;52925;52.436;-1.952;2023-07-13T04:16:06;17.60;89.80
66128;DHT22;52925;52.436;-1.952;2023-07-13T04:17:26;17.60;89.70
66128;DHT22;52925;52.436;-1.952;2023-07-13T04:18:47;17.60;89.70
66128;DHT22;52925;52.436;-1.952;2023-07-13T04:20:08;17.60;89.70
66128;DHT22;52925;52.436;-1.952;2023-07-13T04:21:29;17.60;89.80
66128;DHT22;52925;52.436;-1.952;2023-07-13T04:22:50;17.60;89.70
66128;DHT22;52925;52.436;-1.952;2023-07-13T04:24:11;17.60;89.70
66128;DHT22;52925;52.436;-1.952;2023-07-13T04:25:31;17.50;90.00
66128;DHT22;52925;52.436;-1.952;2023-07-13T04:26:52;17.50;90.00
66128;DHT22;52925;52.436;-1.952;2023-07-13T04:28:12;17.50;90.00
66128;DHT22;52925;52.436;-1.952;2023-07-13T04:29:32;17.50;89.90
66128;DHT22;52925;52.436;-1.952;2023-07-13T04:30:54;17.60;89.90
66128;DHT22;52925;52.436;-1.952;2023-07-13T04:32:15;17.60;89.70
66128;DHT22;52925;52.436;-1.952;2023-07-13T04:33:36;17.60;89.60
66128;DHT22;52925;52.436;-1.952;2023-07-13T04:34:56;17.60;89.70
66128;DHT22;52925;52.436;-1.952;2023-07-13T04:36:18;17.60;89.70
66128;DHT22;52925;52.436;-1.952;2023-07-13T04:37:38;17.60;89.60
66128;DHT22;52925;52.436;-1.952;2023-07-13T04:38:59;17.60;89.60
66128;DHT22;52925;52.436;-1.952;2023-07-13T04:40:20;17.60;89.60
66128;DHT22;52925;52.436;-1.952;2023-07-13T04:41:41;17.60;89.60
66128;DHT22;52925;52.436;-1.952;2023-07-13T04:43:01;17.60;89.50
66128;DHT22;52925;52.436;-1.952;2023-07-13T04:44:22;17.60;89.50
66128;DHT22;52925;52.436;-1.952;2023-07-13T04:45:41;17.60;89.60
66128;DHT22;52925;52.436;-1.952;2023-07-13T04:47:03;17.60;89.50
66128;DHT22;52925;52.436;-1.952;2023-07-13T04:48:24;17.60;89.70
66128;DHT22;52925;52.436;-1.952;2023-07-13T04:49:45;17.50;89.90
66128;DHT22;52925;52.436;-1.952;2023-07-13T04:51:05;17.50;90.00
66128;DHT22;52925;52.436;-1.952;2023-07-13T04:52:26;17.50;89.90
66128;DHT22;52925;52.436;-1.952;2023-07-13T04:53:46;17.50;89.80
66128;DHT22;52925;52.436;-1.952;2023-07-13T04:55:07;17.50;89.90
66128;DHT22;52925;52.436;-1.952;2023-07-13T04:56:27;17.50;89.80
66128;DHT22;52925;52.436;-1.952;2023-07-13T04:57:48;17.50;89.70
66128;DHT22;52925;52.436;-1.952;2023-07-13T04:59:08;17.50;89.60
66128;DHT22;52925;52.436;-1.952;2023-07-13T05:00:30;17.50;89.80
66128;DHT22;52925;52.436;-1.952;2023-07-13T05:01:50;17.50;89.80
66128;DHT22;52925;52.436;-1.952;2023-07-13T05:03:11;17.50;89.70
66128;DHT22;52925;52.436;-1.952;2023-07-13T05:04:32;17.40;89.90
66128;DHT22;52925;52.436;-1.952;2023-07-13T05:05:57;17.40;90.00
66128;DHT22;52925;52.436;-1.952;2023-07-13T05:07:17;17.50;90.00
66128;DHT22;52925;52.436;-1.952;2023-07-13T05:08:38;17.50;89.90
66128;DHT22;52925;52.436;-1.952;2023-07-13T05:09:58;17.50;89.70
66128;DHT22;52925;52.436;-1.952;2023-07-13T05:11:19;17.50;89.70
66128;DHT22;52925;52.436;-1.952;2023-07-13T05:12:39;17.50;89.70
66128;DHT22;52925;52.436;-1.952;2023-07-13T05:13:59;17.50;89.60
66128;DHT22;52925;52.436;-1.952;2023-07-13T05:15:22;17.50;89.90
66128;DHT22;52925;52.436;-1.952;2023-07-13T05:16:43;17.50;89.80
66128;DHT22;52925;52.436;-1.952;2023-07-13T05:18:03;17.40;89.80
66128;DHT22;52925;52.436;-1.952;2023-07-13T05:19:24;17.40;90.00
66128;DHT22;52925;52.436;-1.952;2023-07-13T05:20:45;17.40;90.00
66128;DHT22;52925;52.436;-1.952;2023-07-13T05:22:05;17.40;90.10
66128;DHT22;52925;52.436;-1.952;2023-07-13T05:23:25;17.40;90.00
66128;DHT22;52925;52.436;-1.952;2023-07-13T05:24:46;17.50;89.90
66128;DHT22;52925;52.436;-1.952;2023-07-13T05:26:06;17.50;89.80
66128;DHT22;52925;52.436;-1.952;2023-07-13T05:27:27;17.50;89.70
66128;DHT22;52925;52.436;-1.952;2023-07-13T05:28:47;17.50;89.70
66128;DHT22;52925;52.436;-1.952;2023-07-13T05:30:08;17.50;89.80
66128;DHT22;52925;52.436;-1.952;2023-07-13T05:31:30;17.50;89.80
66128;DHT22;52925;52.436;-1.952;2023-07-13T05:32:50;17.50;89.60
66128;DHT22;52925;52.436;-1.952;2023-07-13T05:34:10;17.40;89.80
66128;DHT22;52925;52.436;-1.952;2023-07-13T05:35:31;17.50;89.90
66128;DHT22;52925;52.436;-1.952;2023-07-13T05:36:53;17.50;89.80
66128;DHT22;52925;52.436;-1.952;2023-07-13T05:38:13;17.50;89.90
66128;DHT22;52925;52.436;-1.952;2023-07-13T05:39:33;17.50;89.90
66128;DHT22;52925;52.436;-1.952;2023-07-13T05:40:55;17.40;90.00
66128;DHT22;52925;52.436;-1.952;2023-07-13T05:42:14;17.40;89.80
66128;DHT22;52925;52.436;-1.952;2023-07-13T05:43:35;17.50;90.00
66128;DHT22;52925;52.436;-1.952;2023-07-13T05:44:55;17.50;89.90
66128;DHT22;52925;52.436;-1.952;2023-07-13T05:46:16;17.40;90.10
66128;DHT22;52925;52.436;-1.952;2023-07-13T05:47:36;17.40;90.10
66128;DHT22;52925;52.436;-1.952;2023-07-13T05:48:56;17.40;90.10
66128;DHT22;52925;52.436;-1.952;2023-07-13T05:50:16;17.40;90.10
66128;DHT22;52925;52.436;-1.952;2023-07-13T05:51:37;17.40;90.00
66128;DHT22;52925;52.436;-1.952;2023-07-13T05:52:58;17.40;90.10
66128;DHT22;52925;52.436;-1.952;2023-07-13T05:54:19;17.40;90.20
66128;DHT22;52925;52.436;-1.952;2023-07-13T05:55:41;17.40;90.20
66128;DHT22;52925;52.436;-1.952;2023-07-13T05:57:02;17.20;90.40
66128;DHT22;52925;52.436;-1.952;2023-07-13T05:58:22;17.20;90.50
66128;DHT22;52925;52.436;-1.952;2023-07-13T05:59:43;17.20;90.60
66128;DHT22;52925;52.436;-1.952;2023-07-13T06:01:06;17.20;90.50
66128;DHT22;52925;52.436;-1.952;2023-07-13T06:02:27;17.30;90.50
66128;DHT22;52925;52.436;-1.952;2023-07-13T06:03:47;17.30;90.30
66128;DHT22;52925;52.436;-1.952;2023-07-13T06:05:09;17.40;90.30
66128;DHT22;52925;52.436;-1.952;2023-07-13T06:06:28;17.30;90.30
66128;DHT22;52925;52.436;-1.952;2023-07-13T06:07:49;17.30;90.30
66128;DHT22;52925;52.436;-1.952;2023-07-13T06:09:11;17.30;90.40
66128;DHT22;52925;52.436;-1.952;2023-07-13T06:10:33;17.40;90.30
66128;DHT22;52925;52.436;-1.952;2023-07-13T06:11:52;17.50;90.20
66128;DHT22;52925;52.436;-1.952;2023-07-13T06:13:13;17.50;90.10
66128;DHT22;52925;52.436;-1.952;2023-07-13T06:14:34;17.50;90.10
66128;DHT22;52925;52.436;-1.952;2023-07-13T06:15:54;17.40;90.30
66128;DHT22;52925;52.436;-1.952;2023-07-13T06:17:14;17.40;90.20
66128;DHT22;52925;52.436;-1.952;2023-07-13T06:18:36;17.50;90.20
66128;DHT22;52925;52.436;-1.952;2023-07-13T06:19:56;17.50;90.20
66128;DHT22;52925;52.436;-1.952;2023-07-13T06:21:18;17.50;90.20
66128;DHT22;52925;52.436;-1.952;2023-07-13T06:22:39;17.50;90.20
66128;DHT22;52925;52.436;-1.952;2023-07-13T06:24:00;17.50;90.20
66128;DHT22;52925;52.436;-1.952;2023-07-13T06:25:21;17.30;90.40
66128;DHT22;52925;52.436;-1.952;2023-07-13T06:26:41;17.30;90.60
66128;DHT22;52925;52.436;-1.952;2023-07-13T06:28:01;17.20;90.80
66128;DHT22;52925;52.436;-1.952;2023-07-13T06:29:22;17.20;90.80
66128;DHT22;52925;52.436;-1.952;2023-07-13T06:30:42;17.20;90.70
66128;DHT22;52925;52.436;-1.952;2023-07-13T06:32:04;17.30;90.80
66128;DHT22;52925;52.436;-1.952;2023-07-13T06:33:24;17.30;90.70
66128;DHT22;52925;52.436;-1.952;2023-07-13T06:34:45;17.20;90.80
66128;DHT22;52925;52.436;-1.952;2023-07-13T06:36:07;17.20;90.80
66128;DHT22;52925;52.436;-1.952;2023-07-13T06:37:28;17.10;91.20
66128;DHT22;52925;52.436;-1.952;2023-07-13T06:38:48;17.00;91.30
66128;DHT22;52925;52.436;-1.952;2023-07-13T06:40:10;17.10;91.30
66128;DHT22;52925;52.436;-1.952;2023-07-13T06:41:31;17.00;91.50
66128;DHT22;52925;52.436;-1.952;2023-07-13T06:42:52;17.00;91.50
66128;DHT22;52925;52.436;-1.952;2023-07-13T06:44:12;17.00;91.50
66128;DHT22;52925;52.436;-1.952;2023-07-13T06:45:35;17.10;91.40
66128;DHT22;52925;52.436;-1.952;2023-07-13T06:46:54;17.10;91.30
66128;DHT22;52925;52.436;-1.952;2023-07-13T06:48:15;17.20;91.30
66128;DHT22;52925;52.436;-1.952;2023-07-13T06:49:35;17.10;91.40
66128;DHT22;52925;52.436;-1.952;2023-07-13T06:50:56;17.10;91.30
66128;DHT22;52925;52.436;-1.952;2023-07-13T06:52:16;17.10;91.70
66128;DHT22;52925;52.436;-1.952;2023-07-13T06:53:36;17.00;91.80
66128;DHT22;52925;52.436;-1.952;2023-07-13T06:54:56;16.90;91.80
66128;DHT22;52925;52.436;-1.952;2023-07-13T06:56:17;16.90;92.10
66128;DHT22;52925;52.436;-1.952;2023-07-13T06:57:39;16.90;92.10
66128;DHT22;52925;52.436;-1.952;2023-07-13T06:58:59;16.90;92.10
66128;DHT22;52925;52.436;-1.952;2023-07-13T07:00:20;16.90;92.10
66128;DHT22;52925;52.436;-1.952;2023-07-13T07:01:40;17.00;91.90
66128;DHT22;52925;52.436;-1.952;2023-07-13T07:03:01;17.00;91.90
66128;DHT22;52925;52.436;-1.952;2023-07-13T07:04:21;17.00;91.80
66128;DHT22;52925;52.436;-1.952;2023-07-13T07:05:42;17.00;91.80
66128;DHT22;52925;52.436;-1.952;2023-07-13T07:07:10;17.00;92.00
66128;DHT22;52925;52.436;-1.952;2023-07-13T07:08:31;17.00;91.90
66128;DHT22;52925;52.436;-1.952;2023-07-13T07:09:51;17.00;91.90
66128;DHT22;52925;52.436;-1.952;2023-07-13T07:11:14;17.00;92.00
66128;DHT22;52925;52.436;-1.952;2023-07-13T07:12:34;17.00;92.20
66128;DHT22;52925;52.436;-1.952;2023-07-13T07:13:56;16.90;92.00
66128;DHT22;52925;52.436;-1.952;2023-07-13T07:15:17;17.00;92.00
66128;DHT22;52925;52.436;-1.952;2023-07-13T07:16:38;16.90;92.00
66128;DHT22;52925;52.436;-1.952;2023-07-13T07:17:58;17.00;92.00
66128;DHT22;52925;52.436;-1.952;2023-07-13T07:19:19;17.00;92.20
66128;DHT22;52925;52.436;-1.952;2023-07-13T07:20:39;17.00;92.00
66128;DHT22;52925;52.436;-1.952;2023-07-13T07:22:00;17.00;91.80
66128;DHT22;52925;52.436;-1.952;2023-07-13T07:23:20;17.00;92.00
66128;DHT22;52925;52.436;-1.952;2023-07-13T07:24:41;17.00;91.80
66128;DHT22;52925;52.436;-1.952;2023-07-13T07:26:01;17.10;91.80
66128;DHT22;52925;52.436;-1.952;2023-07-13T07:27:22;17.20;91.70
66128;DHT22;52925;52.436;-1.952;2023-07-13T07:28:42;17.20;91.50
66128;DHT22;52925;52.436;-1.952;2023-07-13T07:30:06;17.20;91.50
66128;DHT22;52925;52.436;-1.952;2023-07-13T07:31:26;17.20;91.50
66128;DHT22;52925;52.436;-1.952;2023-07-13T07:32:47;17.30;91.30
66128;DHT22;52925;52.436;-1.952;2023-07-13T07:34:06;17.40;91.20
66128;DHT22;52925;52.436;-1.952;2023-07-13T07:35:27;17.40;91.20
66128;DHT22;52925;52.436;-1.952;2023-07-13T07:36:46;17.40;91.00
66128;DHT22;52925;52.436;-1.952;2023-07-13T07:38:08;17.40;91.20
66128;DHT22;52925;52.436;-1.952;2023-07-13T07:39:29;17.40;91.00
66128;DHT22;52925;52.436;-1.952;2023-07-13T07:40:50;17.30;91.20
66128;DHT22;52925;52.436;-1.952;2023-07-13T07:42:10;17.40;91.40
66128;DHT22;52925;52.436;-1.952;2023-07-13T07:43:32;17.30;91.30
66128;DHT22;52925;52.436;-1.952;2023-07-13T07:44:53;17.30;91.20
66128;DHT22;52925;52.436;-1.952;2023-07-13T07:46:14;17.30;91.20
66128;DHT22;52925;52.436;-1.952;2023-07-13T07:47:35;17.30;91.20
66128;DHT22;52925;52.436;-1.952;2023-07-13T07:48:56;17.30;91.20
66128;DHT22;52925;52.436;-1.952;2023-07-13T07:50:17;17.30;91.20
66128;DHT22;52925;52.436;-1.952;2023-07-13T07:51:38;17.30;91.20
66128;DHT22;52925;52.436;-1.952;2023-07-13T07:53:00;17.30;91.10
66128;DHT22;52925;52.436;-1.952;2023-07-13T07:54:21;17.30;91.10
66128;DHT22;52925;52.436;-1.952;2023-07-13T07:55:42;17.30;91.10
66128;DHT22;52925;52.436;-1.952;2023-07-13T07:57:02;17.30;91.10
66128;DHT22;52925;52.436;-1.952;2023-07-13T07:58:23;17.30;91.00
66128;DHT22;52925;52.436;-1.952;2023-07-13T07:59:44;17.30;91.10
66128;DHT22;52925;52.436;-1.952;2023-07-13T08:01:05;17.30;91.20
66128;DHT22;52925;52.436;-1.952;2023-07-13T08:02:28;17.30;91.00
66128;DHT22;52925;52.436;-1.952;2023-07-13T08:03:47;17.30;91.30
66128;DHT22;52925;52.436;-1.952;2023-07-13T08:05:08;17.30;91.30
66128;DHT22;52925;52.436;-1.952;2023-07-13T08:06:28;17.30;91.20
66128;DHT22;52925;52.436;-1.952;2023-07-13T08:07:49;17.30;91.10
66128;DHT22;52925;52.436;-1.952;2023-07-13T08:09:09;17.30;91.20
66128;DHT22;52925;52.436;-1.952;2023-07-13T08:10:30;17.20;91.10
66128;DHT22;52925;52.436;-1.952;2023-07-13T08:11:50;17.30;91.10
66128;DHT22;52925;52.436;-1.952;2023-07-13T08:13:11;17.30;90.90
66128;DHT22;52925;52.436;-1.952;2023-07-13T08:14:32;17.40;90.90
66128;DHT22;52925;52.436;-1.952;2023-07-13T08:15:53;17.40;90.80
66128;DHT22;52925;52.436;-1.952;2023-07-13T08:17:13;17.50;90.70
66128;DHT22;52925;52.436;-1.952;2023-07-13T08:18:36;17.40;90.60
66128;DHT22;52925;52.436;-1.952;2023-07-13T08:19:56;17.40;90.70
66128;DHT22;52925;52.436;-1.952;2023-07-13T08:21:16;17.40;90.70
66128;DHT22;52925;52.436;-1.952;2023-07-13T08:22:39;17.40;90.70
66128;DHT22;52925;52.436;-1.952;2023-07-13T08:23:59;17.30;90.70
66128;DHT22;52925;52.436;-1.952;2023-07-13T08:25:19;17.40;90.80